Flom, Minnesota
Current Conditions -  °F | °C
As of 6:55 AM on Wednesday 22 Oct 2014 (Local Time) from K3N8 Reporting Station
Scattered Clouds Scattered Clouds  
Wind Chill: 51°   Ceiling: Unl
Heat Index: 51°   Visibility: 10mi
Dew Point: 40°   Wind: 16mph
Humidity: 67%   Direction: 150°SSE
Pressure: 29.9"   Gusts: 25mph
Location:  47.17°N, 96.13°W
Report Text: K3N8 221155Z AUTO 15014G22KT 10SM SCT085 10/05 A2990 RMK AO2 T01030045 10111 20096
Loading
Personal Weather Stations






























Interactive Weather Map
Tropical Storm Tracking
New forecast layout! Learn more

10-Day Weather Forecast

Advertisements
Track Severe Weather on mobile